Airfield :
LOGIN :

Register | Disclaimer

   EN    FR    IT 

 










Legend :    VFR   Marginal VFR   IFR   Intensive IFR   Very Intensive IFR
Visi :
Ceiling :
>= 8 km
>= 3000ft
5 to 8 km
1000 to 3000 ft
1500m to 5 km
500 to 1000 ft
800 to 1500m
200 to 500 ft
< 800m
< 200 ft
Symbols :   Thunderstorms  Fog  Heavy snow  Heavy precipitations  Wind > 20 kt
SIGMETs :     Misc.  Thunderstorms  Icing  Turbulence  Mountain Waves  Volcanic Ashes







- Airport Elevation : 306 ft
- IATA code : EMA
- Download approach charts


EGNX - Nottingham East Midlands

CURRENT METAR :
  • 240520Z 27007KT CAVOK 04/01 Q1007

EXPIRED METARs :
  • 240450Z 26007KT CAVOK 04/01 Q1007
  • 240420Z 26009KT CAVOK 04/01 Q1006
  • 240350Z 25009KT CAVOK 04/01 Q1006
  • 240320Z 27007KT CAVOK 04/02 Q1006
  • 240250Z 22005KT CAVOK 04/02 Q1006

TAF TAF EGNX
Valid from the 24 at 06:00 until the 25 at 06:00 UTC


240457Z 2406/2506 26009KT 9999 FEW040
PROB30
TEMPO 2422/2501 7000 SHRA BKN014
ATIS : +44 1332 852 852 (ext 3201)
No reported NOTAMs for that airfield.



MET'MAP, your aeronautical weather chart ! - Copyright ORBIFLY December 2007 - Disclaimer

ORBIFLY MET'MAP TEAM :

Programming & Development : Alexandra Zaïnal
Concept & Development : Baudouin d'Aumeries
Co-Development & Prog : Marc-Olivier Méhu
Technical & hardware support : Manuel Goepfert

Contact : metmap@orbifly.com




SOURCES & CREDITS :

   NOAA